createdAt,value
2022-08-24T00:00:45.126Z,40.13
2022-08-24T00:01:31.797Z,40.18
2022-08-24T00:02:17.810Z,39.98
2022-08-24T00:03:08.215Z,39.92
2022-08-24T00:03:57.275Z,39.94
2022-08-24T00:04:59.804Z,39.83
2022-08-24T00:06:57.648Z,39.89
2022-08-24T00:07:53.207Z,40.24
2022-08-24T00:08:40.558Z,39.90
2022-08-24T00:09:28.429Z,39.86
2022-08-24T00:10:25.003Z,39.95
2022-08-24T00:11:22.928Z,40.00
2022-08-24T00:12:17.216Z,40.20
2022-08-24T00:13:10.800Z,39.87
2022-08-24T00:14:06.415Z,39.92
2022-08-24T00:15:02.005Z,40.07
2022-08-24T00:15:56.461Z,40.15
2022-08-24T00:16:55.996Z,40.31
2022-08-24T00:17:57.990Z,40.01
2022-08-24T00:23:40.943Z,41.13
2022-08-24T00:24:29.567Z,41.25
2022-08-24T00:25:17.528Z,41.12
2022-08-24T00:26:05.029Z,41.56
2022-08-24T00:26:53.580Z,41.41
2022-08-24T00:27:41.782Z,41.23
2022-08-24T00:28:30.165Z,41.17
2022-08-24T00:29:29.196Z,41.76
2022-08-24T00:30:16.396Z,41.69
2022-08-24T00:31:02.539Z,41.34
2022-08-24T00:31:50.141Z,41.17
2022-08-24T00:32:35.369Z,41.27
2022-08-24T00:33:22.865Z,41.24
2022-08-24T00:34:15.394Z,41.39
2022-08-24T00:35:03.932Z,41.39
2022-08-24T00:35:50.399Z,41.37
2022-08-24T00:36:36.528Z,41.48
2022-08-24T00:37:25.892Z,41.49
2022-08-24T00:38:17.456Z,41.44
2022-08-24T00:39:23.747Z,41.69
2022-08-24T00:40:21.499Z,41.39
2022-08-24T00:41:19.608Z,41.61
2022-08-24T00:42:23.841Z,41.61
2022-08-24T00:46:47.345Z,41.39
2022-08-24T00:47:47.689Z,41.47
2022-08-24T00:48:35.595Z,41.39
2022-08-24T00:49:39.603Z,41.56
2022-08-24T00:50:44.666Z,41.79
2022-08-24T00:51:45.620Z,41.78
2022-08-24T00:52:44.555Z,41.78
2022-08-24T00:54:40.767Z,41.81
2022-08-24T00:55:41.280Z,41.51
2022-08-24T00:56:29.249Z,41.64
2022-08-24T00:57:14.979Z,41.99
2022-08-24T00:58:03.643Z,41.82
2022-08-24T01:01:15.643Z,41.69
2022-08-24T01:02:15.586Z,42.37
2022-08-24T01:02:55.780Z,42.01
2022-08-24T01:03:42.151Z,41.75
2022-08-24T01:04:31.592Z,41.53
2022-08-24T01:05:21.881Z,41.79
2022-08-24T01:06:08.491Z,41.24
2022-08-24T01:06:51.913Z,41.59
2022-08-24T01:07:38.404Z,41.60
2022-08-24T01:08:24.551Z,41.86
2022-08-24T01:09:20.933Z,41.76
2022-08-24T01:10:24.271Z,41.88
2022-08-24T01:11:30.553Z,41.84
2022-08-24T01:12:34.797Z,42.16
2022-08-24T01:22:44.201Z,42.29
2022-08-24T01:23:45.778Z,42.14
2022-08-24T01:24:41.719Z,41.59
2022-08-24T01:25:42.002Z,42.15
2022-08-24T01:28:04.632Z,42.52
2022-08-24T01:29:00.527Z,42.18
2022-08-24T01:35:29.057Z,41.81
2022-08-24T01:36:29.883Z,42.16
2022-08-24T01:37:16.005Z,42.13
2022-08-24T01:46:06.362Z,41.85
2022-08-24T01:48:01.545Z,42.19
2022-08-24T01:48:56.875Z,41.91
2022-08-24T01:49:59.895Z,41.83
2022-08-24T01:50:56.854Z,41.67
2022-08-24T01:53:05.781Z,41.40
2022-08-24T03:21:36.568Z,42.38
2022-08-24T03:24:15.444Z,42.21
2022-08-24T03:26:44.106Z,42.48
2022-08-24T03:27:38.661Z,42.22
2022-08-24T03:31:22.730Z,42.08
2022-08-24T06:31:07.638Z,41.44
2022-08-24T06:34:17.756Z,41.10
2022-08-24T06:37:29.220Z,41.30
2022-08-24T06:38:28.253Z,40.96
2022-08-24T06:41:36.014Z,40.93
2022-08-24T06:43:27.246Z,41.02
2022-08-24T06:44:11.449Z,41.29
2022-08-24T06:44:55.798Z,40.94
2022-08-24T06:45:38.072Z,40.99
2022-08-24T06:46:35.789Z,40.85
2022-08-24T06:47:25.492Z,40.82
2022-08-24T06:48:12.161Z,40.94
2022-08-24T06:48:58.327Z,40.89
2022-08-24T06:49:52.517Z,40.53
2022-08-24T06:50:37.928Z,40.52
2022-08-24T06:51:25.250Z,40.64
2022-08-24T06:52:09.279Z,40.87
2022-08-24T06:52:57.675Z,40.75
2022-08-24T06:53:45.807Z,40.48
2022-08-24T06:54:33.024Z,40.54
2022-08-24T06:55:22.686Z,40.68
2022-08-24T06:56:08.615Z,40.81
2022-08-24T06:56:59.335Z,40.75
2022-08-24T06:57:53.688Z,40.87
2022-08-24T06:58:46.991Z,40.60
2022-08-24T06:59:41.556Z,40.71
2022-08-24T07:00:33.074Z,40.54
2022-08-24T07:01:26.098Z,40.65
2022-08-24T07:02:17.126Z,40.84
2022-08-24T07:03:04.850Z,40.93
2022-08-24T07:03:55.629Z,40.90
2022-08-24T07:04:42.733Z,40.59
2022-08-24T07:05:28.502Z,40.57
2022-08-24T07:06:16.351Z,41.07
2022-08-24T07:07:01.271Z,40.66
2022-08-24T07:07:49.461Z,40.95
2022-08-24T07:08:41.390Z,40.77
2022-08-24T07:09:31.473Z,40.47
2022-08-24T07:10:38.113Z,40.95
2022-08-24T07:16:38.174Z,40.80
2022-08-24T07:17:22.901Z,40.48
2022-08-24T07:18:18.781Z,40.69
2022-08-24T07:19:07.917Z,40.74
2022-08-24T07:20:01.963Z,40.91
2022-08-24T07:23:43.009Z,40.82
2022-08-24T07:24:41.148Z,40.60
2022-08-24T07:26:52.971Z,40.92
2022-08-24T07:31:01.626Z,40.90
2022-08-24T07:32:03.071Z,40.90
2022-08-24T07:41:33.748Z,40.83
2022-08-24T07:44:15.976Z,41.05
2022-08-24T07:45:05.994Z,41.15
2022-08-24T07:45:59.494Z,41.20
2022-08-24T07:46:47.912Z,40.94
2022-08-24T07:47:43.798Z,41.17
2022-08-24T07:48:35.767Z,40.83
2022-08-24T07:50:34.795Z,40.87
2022-08-24T07:51:22.619Z,40.67
2022-08-24T07:52:09.436Z,40.71
2022-08-24T07:53:00.402Z,40.81
2022-08-24T07:53:54.012Z,41.07
2022-08-24T07:54:38.670Z,41.14
2022-08-24T07:55:31.507Z,41.11
2022-08-24T07:56:21.079Z,40.96
2022-08-24T07:57:12.227Z,40.91
2022-08-24T07:58:03.979Z,40.85
2022-08-24T07:58:54.401Z,40.96
2022-08-24T07:59:45.895Z,40.75
2022-08-24T08:00:45.850Z,40.99
2022-08-24T08:01:46.425Z,41.01
2022-08-24T08:02:49.046Z,41.08
2022-08-24T08:06:59.624Z,41.08
2022-08-24T08:07:51.588Z,40.87
2022-08-24T08:08:38.654Z,40.98
2022-08-24T08:09:25.610Z,41.13
2022-08-24T08:10:13.911Z,40.71
2022-08-24T08:11:09.634Z,41.03
2022-08-24T08:12:03.830Z,40.95
2022-08-24T08:13:04.039Z,40.97
2022-08-24T08:14:02.299Z,40.94
2022-08-24T08:15:02.977Z,40.96
2022-08-24T08:28:24.959Z,40.61
2022-08-24T08:32:48.065Z,40.43
2022-08-24T08:33:35.481Z,40.60
2022-08-24T08:34:23.469Z,40.58
2022-08-24T08:35:10.756Z,40.52
2022-08-24T08:35:56.480Z,40.10
2022-08-24T08:36:45.546Z,40.42
2022-08-24T08:37:33.551Z,40.34
2022-08-24T08:38:22.138Z,40.60
2022-08-24T08:39:11.085Z,40.45
2022-08-24T08:39:58.834Z,40.42
2022-08-24T08:40:45.962Z,40.50
2022-08-24T08:44:13.262Z,40.44
2022-08-24T08:45:35.012Z,40.98
2022-08-24T08:46:40.186Z,40.41
2022-08-24T08:47:30.301Z,40.00
2022-08-24T08:49:37.175Z,40.41
2022-08-24T08:50:40.871Z,40.57
2022-08-24T08:52:51.594Z,40.74
2022-08-24T08:54:50.829Z,40.46
2022-08-24T08:56:20.697Z,40.56
2022-08-24T08:57:03.895Z,39.86
2022-08-24T08:58:01.447Z,39.94
2022-08-24T09:01:46.508Z,40.29
2022-08-24T09:02:59.693Z,39.34
2022-08-24T09:04:17.207Z,39.89
2022-08-24T09:05:27.172Z,39.77
2022-08-24T09:06:49.699Z,39.47
2022-08-24T09:07:49.482Z,40.42
2022-08-24T09:08:31.260Z,39.99
2022-08-24T09:09:28.254Z,39.00
2022-08-24T09:10:19.732Z,39.90
2022-08-24T09:11:19.753Z,39.30
2022-08-24T09:13:37.303Z,39.16
2022-08-24T09:15:48.346Z,40.02
2022-08-24T09:16:56.867Z,40.21
2022-08-24T09:17:52.930Z,40.28
2022-08-24T09:18:50.776Z,39.58
2022-08-24T09:19:41.964Z,39.66
2022-08-24T09:24:24.044Z,40.30
2022-08-24T09:25:26.316Z,39.55
2022-08-24T09:26:18.959Z,40.27
2022-08-24T09:27:16.870Z,40.08
2022-08-24T09:29:43.619Z,39.40
2022-08-24T09:30:31.527Z,39.74
2022-08-24T09:31:18.726Z,39.72
2022-08-24T09:32:24.473Z,39.83
2022-08-24T09:35:57.813Z,38.92
2022-08-24T09:37:00.145Z,39.46
2022-08-24T09:37:48.184Z,39.16
2022-08-24T09:38:40.669Z,39.18
2022-08-24T09:41:25.740Z,38.47
2022-08-24T09:42:18.865Z,38.52
2022-08-24T09:43:00.583Z,38.39
2022-08-24T09:43:48.229Z,37.91
2022-08-24T09:44:30.344Z,38.05
2022-08-24T09:45:25.879Z,38.40
2022-08-24T09:47:49.008Z,37.98
2022-08-24T09:50:16.484Z,38.89
2022-08-24T09:51:10.251Z,38.38
2022-08-24T09:52:01.793Z,38.16
2022-08-24T09:53:18.042Z,39.55
2022-08-24T09:54:21.250Z,38.76
2022-08-24T09:55:27.523Z,38.72
2022-08-24T09:57:44.299Z,39.28
2022-08-24T10:00:00.072Z,39.44
2022-08-24T10:00:57.427Z,39.18
2022-08-24T10:04:26.575Z,39.06
2022-08-24T10:05:17.828Z,38.17
2022-08-24T10:06:07.677Z,39.90
2022-08-24T10:07:15.862Z,38.69
2022-08-24T10:08:14.255Z,38.83
2022-08-24T10:09:26.040Z,38.73
2022-08-24T10:10:35.586Z,38.74
2022-08-24T10:16:09.783Z,38.60
2022-08-24T10:18:37.733Z,38.45
2022-08-24T10:19:46.718Z,38.20
2022-08-24T10:20:38.965Z,38.99
2022-08-24T10:21:24.660Z,39.08
2022-08-24T10:22:17.885Z,38.45
2022-08-24T10:23:06.222Z,37.94
2022-08-24T10:24:07.666Z,37.91
2022-08-24T10:27:47.700Z,39.22
2022-08-24T10:28:35.735Z,38.44
2022-08-24T10:30:00.013Z,37.58
2022-08-24T10:30:52.162Z,37.19
2022-08-24T10:31:47.733Z,37.28
2022-08-24T10:32:50.846Z,37.15
2022-08-24T10:33:53.507Z,37.05
2022-08-24T10:37:18.359Z,37.51
2022-08-24T10:38:20.704Z,37.60
2022-08-24T10:40:25.417Z,39.02
2022-08-24T10:41:48.181Z,37.82
2022-08-24T10:44:47.149Z,37.30
2022-08-24T10:45:55.171Z,37.62
2022-08-24T10:46:42.954Z,36.85
2022-08-24T10:47:39.212Z,38.30
2022-08-24T10:48:25.053Z,37.88
2022-08-24T10:49:35.236Z,37.86
2022-08-24T10:57:02.696Z,36.85
2022-08-24T10:57:50.195Z,37.22
2022-08-24T10:58:40.660Z,36.99
2022-08-24T10:59:32.596Z,36.74
2022-08-24T11:01:16.980Z,37.12
2022-08-24T11:02:18.518Z,36.87
2022-08-24T11:03:33.786Z,37.00
2022-08-24T11:04:45.314Z,36.47
2022-08-24T11:06:56.700Z,36.76
2022-08-24T11:07:50.929Z,36.81
2022-08-24T11:08:44.139Z,36.60
2022-08-24T11:09:30.559Z,36.13
2022-08-24T11:10:19.648Z,36.40
2022-08-24T11:11:12.837Z,36.12
2022-08-24T11:12:07.413Z,36.30
2022-08-24T11:12:52.894Z,36.92
2022-08-24T11:13:39.559Z,36.78
2022-08-24T11:14:28.711Z,36.70
2022-08-24T11:15:23.921Z,36.40
2022-08-24T11:16:16.355Z,36.70
2022-08-24T11:18:55.620Z,37.63
2022-08-24T11:19:43.873Z,36.51
2022-08-24T11:20:47.560Z,36.78
2022-08-24T11:21:52.064Z,37.82
2022-08-24T11:22:42.596Z,37.77
2022-08-24T11:23:31.804Z,38.32
2022-08-24T11:24:17.788Z,37.38
2022-08-24T11:25:07.003Z,36.69
2022-08-24T11:26:04.274Z,37.56
2022-08-24T11:27:06.288Z,37.03
2022-08-24T11:27:58.409Z,37.97
2022-08-24T11:28:46.308Z,37.23
2022-08-24T11:41:21.949Z,36.90
2022-08-24T11:42:29.194Z,37.83
2022-08-24T11:43:40.267Z,37.62
2022-08-24T11:44:42.721Z,37.40
2022-08-24T11:45:36.702Z,37.37
2022-08-24T11:46:39.005Z,37.48
2022-08-24T11:48:35.064Z,37.78
2022-08-24T11:49:36.847Z,37.75
2022-08-24T11:50:29.419Z,37.59
2022-08-24T11:51:49.161Z,37.58
2022-08-24T11:54:06.506Z,37.47
2022-08-24T11:55:05.255Z,37.14
2022-08-24T11:56:08.497Z,37.78
2022-08-24T11:58:34.433Z,38.53
2022-08-24T11:59:26.308Z,38.42
2022-08-24T12:00:13.985Z,38.12
2022-08-24T12:01:07.359Z,38.00
2022-08-24T12:01:56.986Z,38.64
2022-08-24T12:02:49.231Z,37.52
2022-08-24T12:04:04.413Z,38.10
2022-08-24T12:05:16.396Z,37.96
2022-08-24T12:06:10.360Z,36.98
2022-08-24T12:07:20.372Z,37.89
2022-08-24T12:08:21.196Z,37.85
2022-08-24T12:09:44.791Z,38.31
2022-08-24T12:10:56.185Z,38.07
2022-08-24T12:12:03.465Z,37.96
2022-08-24T12:12:57.618Z,36.95
2022-08-24T12:14:00.210Z,37.36
2022-08-24T12:15:00.292Z,37.49
2022-08-24T12:15:58.244Z,37.87
2022-08-24T12:16:59.762Z,37.97
2022-08-24T12:18:11.105Z,38.02
2022-08-24T12:19:14.685Z,37.49
2022-08-24T12:20:15.012Z,38.14
2022-08-24T12:21:12.709Z,37.41
2022-08-24T12:22:07.960Z,37.85
2022-08-24T12:22:57.733Z,38.06
2022-08-24T12:24:07.107Z,38.07
2022-08-24T12:25:17.226Z,37.78
2022-08-24T12:29:58.028Z,37.78
2022-08-24T12:30:48.629Z,37.08
2022-08-24T12:31:41.912Z,37.08
2022-08-24T12:32:34.803Z,38.06
2022-08-24T12:33:23.752Z,37.65
2022-08-24T12:34:11.475Z,37.60
2022-08-24T12:34:58.883Z,38.12
2022-08-24T12:35:52.771Z,38.02
2022-08-24T12:38:21.969Z,38.15
2022-08-24T12:39:18.165Z,38.11
2022-08-24T12:42:51.334Z,36.74
2022-08-24T12:44:07.556Z,37.56
2022-08-24T12:45:01.519Z,36.41
2022-08-24T12:45:48.664Z,36.54
2022-08-24T12:46:36.687Z,36.95
2022-08-24T12:47:37.782Z,37.58
2022-08-24T12:48:29.536Z,37.75
2022-08-24T12:49:35.262Z,37.10
2022-08-24T12:50:33.367Z,37.58
2022-08-24T12:54:38.201Z,38.71
2022-08-24T12:56:07.403Z,38.69
2022-08-24T12:57:02.789Z,38.95
2022-08-24T12:59:04.964Z,38.73
2022-08-24T13:00:02.339Z,37.97
2022-08-24T13:00:49.827Z,37.75
2022-08-24T13:01:39.041Z,38.34
2022-08-24T13:02:23.878Z,37.89
2022-08-24T13:03:23.266Z,37.64
2022-08-24T13:04:15.496Z,38.06
2022-08-24T13:05:14.284Z,37.97
2022-08-24T13:06:16.219Z,37.97
2022-08-24T13:07:13.404Z,38.85
2022-08-24T13:10:40.225Z,38.62
2022-08-24T13:12:54.661Z,38.77
2022-08-24T13:14:16.500Z,38.65
2022-08-24T13:15:04.153Z,39.46
2022-08-24T13:16:01.189Z,38.92
2022-08-24T13:16:57.921Z,39.72
2022-08-24T13:17:52.051Z,39.86
2022-08-24T13:19:17.683Z,39.76
2022-08-24T13:20:20.574Z,39.49
2022-08-24T13:21:14.010Z,39.87
2022-08-24T13:22:30.601Z,38.72
2022-08-24T13:25:52.059Z,38.59
2022-08-24T13:26:45.023Z,38.15
2022-08-24T13:27:28.464Z,38.64
2022-08-24T13:28:23.660Z,38.39
2022-08-24T13:29:15.024Z,37.37
2022-08-24T13:31:08.624Z,37.78
2022-08-24T13:32:03.711Z,37.87
2022-08-24T13:32:59.572Z,38.54
2022-08-24T13:33:52.938Z,38.46
2022-08-24T13:34:44.768Z,38.97
2022-08-24T13:35:47.863Z,39.12
2022-08-24T13:40:17.001Z,38.13
2022-08-24T13:41:27.141Z,38.96
2022-08-24T13:42:12.449Z,37.98
2022-08-24T13:42:53.253Z,37.98
2022-08-24T13:43:35.880Z,37.65
2022-08-24T13:44:11.864Z,38.33
2022-08-24T13:44:48.293Z,38.04
2022-08-24T13:45:23.962Z,38.04
2022-08-24T13:46:02.517Z,37.90
2022-08-24T13:46:36.767Z,37.80
2022-08-24T13:47:10.958Z,37.90
2022-08-24T13:48:01.193Z,37.94
2022-08-24T13:48:38.732Z,37.91
2022-08-24T13:49:28.523Z,37.53
2022-08-24T13:50:05.988Z,37.89
2022-08-24T13:50:55.836Z,38.07
2022-08-24T13:51:35.353Z,38.22
2022-08-24T13:52:25.501Z,38.32
2022-08-24T13:53:15.504Z,38.21
2022-08-24T13:53:46.782Z,38.02
2022-08-24T13:54:44.304Z,37.96
2022-08-24T13:55:55.225Z,37.85
2022-08-24T13:56:45.119Z,37.35
2022-08-24T13:57:32.774Z,38.04
2022-08-24T13:58:43.377Z,37.99
2022-08-24T13:59:15.440Z,38.32
2022-08-24T13:59:55.006Z,38.39
2022-08-24T14:00:29.347Z,37.83
2022-08-24T14:01:06.810Z,38.10
2022-08-24T14:01:50.669Z,38.51
2022-08-24T14:02:42.130Z,38.28
2022-08-24T14:03:19.604Z,38.94
2022-08-24T14:03:53.713Z,38.80
2022-08-24T14:04:25.119Z,38.63
2022-08-24T14:05:08.462Z,38.90
2022-08-24T14:05:39.798Z,38.29
2022-08-24T14:06:21.981Z,38.50
2022-08-24T14:07:00.794Z,38.34
2022-08-24T14:07:47.153Z,38.30
2022-08-24T14:08:30.193Z,38.38
2022-08-24T14:09:18.553Z,38.23
2022-08-24T14:10:08.536Z,38.26
2022-08-24T14:10:42.621Z,38.34
2022-08-24T14:11:19.211Z,38.02
2022-08-24T14:12:11.671Z,38.02
2022-08-24T14:12:44.505Z,36.36
2022-08-24T14:13:30.935Z,37.96
2022-08-24T14:14:02.224Z,37.42
2022-08-24T14:14:39.771Z,37.24
2022-08-24T14:15:17.026Z,37.20
2022-08-24T14:15:53.582Z,37.48
2022-08-24T14:16:25.019Z,37.48
2022-08-24T14:17:19.722Z,37.38
2022-08-24T14:18:10.073Z,37.42
2022-08-24T14:18:48.979Z,37.40
2022-08-24T14:19:25.906Z,37.47
2022-08-24T14:20:05.995Z,37.96
2022-08-24T14:20:56.057Z,37.76
2022-08-24T14:21:36.286Z,36.76
2022-08-24T14:22:20.092Z,37.63
2022-08-24T14:22:51.371Z,36.71
2022-08-24T14:23:30.199Z,37.51
2022-08-24T14:24:02.811Z,37.78
2022-08-24T14:24:36.513Z,37.57
2022-08-24T14:25:15.827Z,37.32
2022-08-24T14:25:47.182Z,37.50
2022-08-24T14:26:33.837Z,37.35
2022-08-24T14:27:06.597Z,37.31
2022-08-24T14:27:41.006Z,37.28
2022-08-24T14:28:41.659Z,37.21
2022-08-24T14:29:15.781Z,37.69
2022-08-24T14:29:47.107Z,37.79
2022-08-24T14:30:18.401Z,37.77
2022-08-24T14:30:54.534Z,37.37
2022-08-24T14:31:26.053Z,37.39
2022-08-24T14:32:08.506Z,37.23
2022-08-24T14:32:46.105Z,37.38
2022-08-24T14:33:18.709Z,37.79
2022-08-24T14:33:57.754Z,37.33
2022-08-24T14:34:36.830Z,37.22
2022-08-24T14:35:13.762Z,37.29
2022-08-24T14:35:46.995Z,37.56
2022-08-24T14:36:19.289Z,36.97
2022-08-24T14:36:57.726Z,37.18
2022-08-24T14:37:40.605Z,37.68
2022-08-24T14:38:21.197Z,37.11
2022-08-24T14:38:55.233Z,37.27
2022-08-24T14:39:38.684Z,37.25
2022-08-24T14:40:28.927Z,37.11
2022-08-24T14:41:14.250Z,37.61
2022-08-24T14:41:47.082Z,37.24
2022-08-24T14:42:38.650Z,37.60
2022-08-24T14:43:22.015Z,37.29
2022-08-24T14:44:12.355Z,37.41
2022-08-24T14:44:57.165Z,37.30
2022-08-24T14:45:38.171Z,37.57
2022-08-24T14:46:23.543Z,37.51
2022-08-24T14:47:05.151Z,37.34
2022-08-24T14:47:39.134Z,37.34
2022-08-24T14:48:19.326Z,36.92
2022-08-24T14:49:02.930Z,37.19
2022-08-24T14:49:34.325Z,37.38
2022-08-24T14:50:22.438Z,37.08
2022-08-24T14:50:56.964Z,37.09
2022-08-24T14:51:47.024Z,37.11
2022-08-24T14:52:30.360Z,37.38
2022-08-24T14:53:28.499Z,37.40
2022-08-24T14:54:02.693Z,37.29
2022-08-24T14:54:40.981Z,37.24
2022-08-24T14:55:15.820Z,37.51
2022-08-24T14:55:53.053Z,37.20
2022-08-24T14:56:35.136Z,37.50
2022-08-24T14:57:25.138Z,37.46
2022-08-24T14:58:14.461Z,37.58
2022-08-24T14:58:51.871Z,37.41
2022-08-24T14:59:28.980Z,37.10
2022-08-24T15:00:09.291Z,37.35
2022-08-24T15:00:50.651Z,37.40
2022-08-24T15:01:38.000Z,37.50
2022-08-24T15:02:25.629Z,37.16
2022-08-24T15:03:23.318Z,37.44
2022-08-24T15:04:08.945Z,37.35
2022-08-24T15:04:43.672Z,37.55
2022-08-24T15:05:20.985Z,37.47
2022-08-24T15:06:25.146Z,37.35
2022-08-24T15:06:53.190Z,37.26
2022-08-24T15:07:31.699Z,37.27
2022-08-24T15:08:07.400Z,37.53
2022-08-24T15:08:39.122Z,37.50
2022-08-24T15:09:29.006Z,37.77
2022-08-24T15:10:00.735Z,37.55
2022-08-24T15:10:41.959Z,37.14
2022-08-24T15:11:17.614Z,37.62
2022-08-24T15:11:51.180Z,37.47
2022-08-24T15:12:39.129Z,37.72
2022-08-24T15:13:11.648Z,37.45
2022-08-24T15:14:09.244Z,37.34
2022-08-24T15:14:42.671Z,37.29
2022-08-24T15:15:15.573Z,37.16
2022-08-24T15:15:52.723Z,37.61
2022-08-24T15:16:38.918Z,37.15
2022-08-24T15:17:11.508Z,37.23
2022-08-24T15:17:49.448Z,37.25
2022-08-24T15:18:31.572Z,37.40
2022-08-24T15:19:09.285Z,37.67
2022-08-24T15:19:51.397Z,37.10
2022-08-24T15:20:49.085Z,37.00
2022-08-24T15:21:29.276Z,37.53
2022-08-24T15:22:00.554Z,37.24
2022-08-24T15:22:37.361Z,37.10
2022-08-24T15:23:13.990Z,37.44
2022-08-24T15:23:57.590Z,37.60
2022-08-24T15:24:33.586Z,37.48
2022-08-24T15:25:10.878Z,36.98
2022-08-24T15:25:42.130Z,37.11
2022-08-24T15:26:17.504Z,37.21
2022-08-24T15:27:08.353Z,37.11
2022-08-24T15:27:39.771Z,37.50
2022-08-24T15:28:11.198Z,37.37
2022-08-24T15:28:55.314Z,37.22
2022-08-24T15:29:29.870Z,37.40
2022-08-24T15:30:02.449Z,37.15
2022-08-24T15:30:34.887Z,37.76
2022-08-24T15:31:07.601Z,37.31
2022-08-24T15:31:39.082Z,37.60
2022-08-24T15:32:11.453Z,37.76
2022-08-24T15:32:44.382Z,37.41
2022-08-24T15:33:19.523Z,37.38
2022-08-24T15:33:54.074Z,37.55
2022-08-24T15:34:34.435Z,37.25
2022-08-24T15:35:05.840Z,37.38
2022-08-24T15:35:38.659Z,37.73
2022-08-24T15:36:11.162Z,37.79
2022-08-24T15:36:42.482Z,37.35
2022-08-24T15:37:14.741Z,37.60
2022-08-24T15:37:46.083Z,37.25
2022-08-24T15:38:23.274Z,37.79
2022-08-24T15:38:54.633Z,37.73
2022-08-24T15:39:26.815Z,37.41
2022-08-24T15:39:59.433Z,36.86
2022-08-24T15:40:31.017Z,37.12
2022-08-24T15:41:06.301Z,37.00
2022-08-24T15:41:38.274Z,37.38
2022-08-24T15:42:10.702Z,37.61
2022-08-24T15:42:42.052Z,37.16
2022-08-24T15:43:13.425Z,37.56
2022-08-24T15:43:45.695Z,37.65
2022-08-24T15:44:21.438Z,37.67
2022-08-24T15:44:54.708Z,37.41
2022-08-24T15:45:26.140Z,37.09
2022-08-24T15:45:57.571Z,37.74
2022-08-24T15:46:31.288Z,37.09
2022-08-24T15:47:11.590Z,37.45
2022-08-24T15:47:46.460Z,37.13
2022-08-24T15:48:21.232Z,37.45
2022-08-24T15:48:53.769Z,37.22
2022-08-24T15:49:26.130Z,37.41
2022-08-24T15:50:20.705Z,37.41
2022-08-24T15:50:52.617Z,37.37
2022-08-24T15:51:39.733Z,37.74
2022-08-24T15:52:30.987Z,37.10
2022-08-24T15:53:06.103Z,37.31
2022-08-24T15:53:40.771Z,37.50
2022-08-24T15:54:20.626Z,37.49
2022-08-24T15:54:59.130Z,37.48
2022-08-24T15:55:33.278Z,37.62
2022-08-24T15:56:23.268Z,37.62
2022-08-24T15:56:56.245Z,37.71
2022-08-24T15:57:28.197Z,37.18
2022-08-24T15:58:11.777Z,37.42
2022-08-24T15:58:43.114Z,37.13
2022-08-24T15:59:23.310Z,37.24
2022-08-24T16:00:10.217Z,37.71
2022-08-24T16:00:44.578Z,37.80
2022-08-24T16:01:16.263Z,37.66
2022-08-24T16:01:51.288Z,37.73
2022-08-24T16:02:26.661Z,37.46
2022-08-24T16:03:13.724Z,37.82
2022-08-24T16:03:46.595Z,37.63
2022-08-24T16:04:38.262Z,37.87
2022-08-24T16:05:20.417Z,37.70
2022-08-24T16:05:52.640Z,37.90
2022-08-24T16:06:26.836Z,37.77
2022-08-24T16:06:59.405Z,37.16
2022-08-24T16:07:34.011Z,37.87
2022-08-24T16:08:06.939Z,37.40
2022-08-24T16:08:49.986Z,37.54
2022-08-24T16:09:21.280Z,37.55
2022-08-24T16:10:00.874Z,37.34
2022-08-24T16:10:33.362Z,37.22
2022-08-24T16:11:09.078Z,37.82
2022-08-24T16:11:44.464Z,37.30
2022-08-24T16:12:20.930Z,37.44
2022-08-24T16:12:52.323Z,37.78
2022-08-24T16:13:32.809Z,37.52
2022-08-24T16:14:05.544Z,37.39
2022-08-24T16:14:37.634Z,37.42
2022-08-24T16:15:12.174Z,37.39
2022-08-24T16:15:44.747Z,37.46
2022-08-24T16:16:16.287Z,37.23
2022-08-24T16:16:48.459Z,37.40
2022-08-24T16:17:22.604Z,37.67
2022-08-24T16:17:55.206Z,37.30
2022-08-24T16:18:46.469Z,37.22
2022-08-24T16:19:27.327Z,37.79
2022-08-24T16:19:59.471Z,37.46
2022-08-24T16:20:32.295Z,37.48
2022-08-24T16:21:03.696Z,37.35
2022-08-24T16:21:39.596Z,37.81
2022-08-24T16:22:10.882Z,37.29
2022-08-24T16:22:58.981Z,37.48
2022-08-24T16:23:31.997Z,37.59
2022-08-24T16:24:13.780Z,37.18
2022-08-24T16:24:45.196Z,37.60
2022-08-24T16:25:18.173Z,37.58
2022-08-24T16:25:51.343Z,37.57
2022-08-24T16:26:42.914Z,37.33
2022-08-24T16:27:16.201Z,37.17
2022-08-24T16:28:05.992Z,37.51
2022-08-24T16:28:39.248Z,37.44
2022-08-24T16:29:30.198Z,37.18
2022-08-24T16:30:04.913Z,37.18
2022-08-24T16:30:53.003Z,37.36
2022-08-24T16:31:42.609Z,37.01
2022-08-24T16:32:33.363Z,37.53
2022-08-24T16:33:30.083Z,37.58
2022-08-24T16:34:16.574Z,37.74
2022-08-24T16:34:54.028Z,37.35
2022-08-24T16:35:25.329Z,37.54
2022-08-24T16:35:57.175Z,37.36
2022-08-24T16:36:29.007Z,37.42
2022-08-24T16:37:00.350Z,37.72
2022-08-24T16:37:31.730Z,37.54
2022-08-24T16:38:03.175Z,37.80
2022-08-24T16:38:35.386Z,37.88
2022-08-24T16:39:06.779Z,37.33
2022-08-24T16:39:38.078Z,37.79
2022-08-24T16:40:09.645Z,37.35
2022-08-24T16:40:41.223Z,37.81
2022-08-24T16:41:13.037Z,37.59
2022-08-24T16:41:44.389Z,37.17
2022-08-24T16:42:19.627Z,37.62
2022-08-24T16:42:50.953Z,37.51
2022-08-24T16:43:22.269Z,37.33
2022-08-24T16:43:53.586Z,37.57
2022-08-24T16:44:26.497Z,37.42
2022-08-24T16:44:58.144Z,37.51
2022-08-24T16:45:31.722Z,37.80
2022-08-24T16:46:07.273Z,37.73
2022-08-24T16:46:38.869Z,37.25
2022-08-24T16:47:10.229Z,37.78
2022-08-24T16:47:41.691Z,37.21
2022-08-24T16:48:13.067Z,37.83
2022-08-24T16:48:44.442Z,37.48
2022-08-24T16:49:15.815Z,37.63
2022-08-24T16:49:47.312Z,37.80
2022-08-24T16:50:19.089Z,37.32
2022-08-24T16:50:51.159Z,37.51
2022-08-24T16:51:22.593Z,37.78
2022-08-24T16:51:53.918Z,37.68
2022-08-24T16:52:25.211Z,37.09
2022-08-24T16:52:56.541Z,37.74
2022-08-24T16:53:27.861Z,37.30
2022-08-24T16:53:59.137Z,37.35
2022-08-24T16:54:30.681Z,37.49
2022-08-24T16:55:02.037Z,37.55
2022-08-24T16:55:33.459Z,37.44
2022-08-24T16:56:04.808Z,37.43
2022-08-24T16:56:36.112Z,37.91
2022-08-24T16:57:11.700Z,37.39
2022-08-24T16:57:43.023Z,37.21
2022-08-24T16:58:14.685Z,37.25
2022-08-24T16:58:46.237Z,37.51
2022-08-24T16:59:20.175Z,37.32
2022-08-24T16:59:51.797Z,37.59
2022-08-24T17:00:23.336Z,37.76
2022-08-24T17:00:54.832Z,37.30
2022-08-24T17:01:26.739Z,37.62
2022-08-24T17:01:58.663Z,37.73
2022-08-24T17:02:30.027Z,37.80
2022-08-24T17:03:01.353Z,37.24
2022-08-24T17:03:32.726Z,37.34
2022-08-24T17:04:04.182Z,37.70
2022-08-24T17:04:35.580Z,37.74
2022-08-24T17:05:07.118Z,37.47
2022-08-24T17:05:38.711Z,37.39
2022-08-24T17:06:11.454Z,37.26
2022-08-24T17:06:42.757Z,37.32
2022-08-24T17:07:14.505Z,37.73
2022-08-24T17:07:45.812Z,37.75
2022-08-24T17:08:17.330Z,37.07
2022-08-24T17:08:48.648Z,37.35
2022-08-24T17:09:20.009Z,37.86
2022-08-24T17:09:51.394Z,37.41
2022-08-24T17:10:22.733Z,37.67
2022-08-24T17:10:54.129Z,37.39
2022-08-24T17:11:25.449Z,37.72
2022-08-24T17:11:56.781Z,37.46
2022-08-24T17:12:28.150Z,37.85
2022-08-24T17:12:59.471Z,37.73
2022-08-24T17:13:48.898Z,37.68
2022-08-24T17:14:21.010Z,37.45
2022-08-24T17:14:52.339Z,37.59
2022-08-24T17:15:24.338Z,37.46
2022-08-24T17:15:55.690Z,37.35
2022-08-24T17:16:27.044Z,37.29
2022-08-24T17:16:58.445Z,37.41
2022-08-24T17:17:29.786Z,37.75
2022-08-24T17:18:01.992Z,37.39
2022-08-24T17:18:33.351Z,37.36
2022-08-24T17:19:06.756Z,37.49
2022-08-24T17:19:38.195Z,37.62
2022-08-24T17:20:09.728Z,37.76
2022-08-24T17:20:41.178Z,37.82
2022-08-24T17:21:12.551Z,37.87
2022-08-24T17:21:43.899Z,37.47
2022-08-24T17:22:16.480Z,37.39
2022-08-24T17:22:47.979Z,37.85
2022-08-24T17:23:19.342Z,37.52
2022-08-24T17:23:50.662Z,37.56
2022-08-24T17:24:22.122Z,37.39
2022-08-24T17:24:53.468Z,37.65
2022-08-24T17:25:25.015Z,37.95
2022-08-24T17:25:56.339Z,37.78
2022-08-24T17:26:27.738Z,37.46
2022-08-24T17:26:59.038Z,37.37
2022-08-24T17:27:31.226Z,37.35
2022-08-24T17:28:02.707Z,37.91
2022-08-24T17:28:34.448Z,37.56
2022-08-24T17:29:06.618Z,37.83
2022-08-24T17:29:37.905Z,37.81
2022-08-24T17:30:09.603Z,37.35
2022-08-24T17:30:41.114Z,37.42
2022-08-24T17:31:12.451Z,37.42
2022-08-24T17:31:43.794Z,37.28
2022-08-24T17:32:18.544Z,37.64
2022-08-24T17:32:50.387Z,37.86
2022-08-24T17:33:21.740Z,37.61
2022-08-24T17:33:53.126Z,37.62